Time;durP1;ratioP1;P1;durP2;ratioP2;P2;SDS_P1;SDS_P2;PMS_P1;PMS_P2;Temp;Humidity;BMP_temperature;BMP_pressure;BME280_temperature;BME280_humidity;BME280_pressure;Samples;Min_cycle;Max_cycle;Signal;HPM_P1;HPM_P2
2023/07/19 00:01:47;;;;;;;3.55;1.70;;;;;;;;;;4957263;28;98752;-85
2023/07/19 00:04:37;;;;;;;5.47;1.42;;;;;;;;;;4938805;28;99626;-84
2023/07/19 00:07:23;;;;;;;6.88;1.55;;;;;;;;;;4955130;28;98913;-84
2023/07/19 00:10:00;;;;;;;4.18;1.58;;;;;;;;;;4956014;28;98777;-84
2023/07/19 00:12:41;;;;;;;4.80;1.60;;;;;;;;;;4954376;28;99894;-84
2023/07/19 00:15:39;;;;;;;4.53;1.90;;;;;;;;;;4942331;28;100473;-84
2023/07/19 00:18:51;;;;;;;;;;;;;;;;;;;;;
2023/07/19 00:22:21;;;;;;;3.70;1.70;;;;;;;;;;4959876;28;98514;-85
2023/07/19 00:25:18;;;;;;;5.35;1.77;;;;;;;;;;4959581;28;100185;-85
2023/07/19 00:32:21;;;;;;;6.90;1.90;;;;;;;;;;4888071;28;99271;-85
2023/07/19 00:35:40;;;;;;;;;;;;;;;;;;;;;
2023/07/19 00:38:47;;;;;;;4.40;1.70;;;;;;;;;;4956278;28;100260;-86
2023/07/19 00:41:39;;;;;;;3.78;1.67;;;;;;;;;;4956614;28;99234;-86
2023/07/19 00:45:06;;;;;;;3.78;1.70;;;;;;;;;;4937209;28;116824;-85
2023/07/19 00:48:04;;;;;;;3.63;1.80;;;;;;;;;;4944143;28;98613;-86
2023/07/19 00:51:21;;;;;;;3.55;1.70;;;;;;;;;;4948196;28;98734;-84
2023/07/19 00:55:11;;;;;;;6.82;1.80;;;;;;;;;;4912947;28;98537;-83
2023/07/19 00:58:16;;;;;;;9.77;2.53;;;;;;;;;;4930813;28;98323;-84
2023/07/19 01:01:16;;;;;;;4.53;1.85;;;;;;;;;;4932420;28;98314;-84
2023/07/19 01:04:26;;;;;;;5.05;1.75;;;;;;;;;;4940563;28;99036;-85
2023/07/19 01:07:11;;;;;;;8.55;1.80;;;;;;;;;;4924597;28;98443;-84
2023/07/19 01:10:20;;;;;;;5.57;1.48;;;;;;;;;;4926965;28;99507;-85
2023/07/19 01:13:26;;;;;;;8.13;1.70;;;;;;;;;;4932923;28;99554;-85
2023/07/19 01:16:32;;;;;;;4.25;1.73;;;;;;;;;;4933512;28;98583;-84
2023/07/19 01:19:39;;;;;;;4.47;1.70;;;;;;;;;;4921699;28;98406;-85
2023/07/19 01:22:48;;;;;;;5.57;1.73;;;;;;;;;;4939912;28;98264;-84
2023/07/19 01:25:34;;;;;;;7.00;1.80;;;;;;;;;;4921739;28;99801;-84
2023/07/19 01:28:28;;;;;;;6.97;1.77;;;;;;;;;;4937593;28;100326;-84
2023/07/19 01:31:44;;;;;;;4.88;1.58;;;;;;;;;;4943088;28;98417;-84
2023/07/19 01:35:14;;;;;;;;;;;;;;;;;;;;;
2023/07/19 01:38:35;;;;;;;4.75;1.77;;;;;;;;;;4908399;28;99717;-84
2023/07/19 01:41:27;;;;;;;4.53;1.80;;;;;;;;;;4937513;28;99912;-84
2023/07/19 01:48:52;;;;;;;5.88;1.88;;;;;;;;;;4865886;28;98675;-84
2023/07/19 01:52:09;;;;;;;7.10;1.70;;;;;;;;;;4850680;29;98459;-84
2023/07/19 01:55:19;;;;;;;5.95;1.73;;;;;;;;;;4860370;29;98386;-84
2023/07/19 01:58:12;;;;;;;5.70;1.80;;;;;;;;;;4821383;28;98567;-84
2023/07/19 02:01:26;;;;;;;3.70;1.58;;;;;;;;;;4866560;28;98577;-85
2023/07/19 02:04:26;;;;;;;4.63;1.48;;;;;;;;;;4958533;28;99386;-84
2023/07/19 02:07:37;;;;;;;5.55;1.70;;;;;;;;;;4948310;28;98731;-84
2023/07/19 02:10:58;;;;;;;6.30;1.88;;;;;;;;;;4958679;28;98148;-84
2023/07/19 02:14:10;;;;;;;5.90;2.00;;;;;;;;;;4919178;28;99297;-84
2023/07/19 02:17:14;;;;;;;;;;;;;;;;;;;;;
2023/07/19 02:20:21;;;;;;;3.88;1.40;;;;;;;;;;4901583;28;98346;-84
2023/07/19 02:23:18;;;;;;;4.47;1.55;;;;;;;;;;4910123;28;98325;-84
2023/07/19 02:26:25;;;;;;;5.18;1.67;;;;;;;;;;4917564;28;100755;-84
2023/07/19 02:29:19;;;;;;;;;;;;;;;;;;;;;
2023/07/19 02:31:58;;;;;;;3.78;1.52;;;;;;;;;;4911895;28;98663;-84
2023/07/19 02:34:51;;;;;;;5.00;1.77;;;;;;;;;;4916756;28;97629;-84
2023/07/19 02:37:45;;;;;;;2.67;1.40;;;;;;;;;;4909754;28;98308;-85
2023/07/19 02:40:32;;;;;;;4.85;2.00;;;;;;;;;;4917102;28;99386;-85
2023/07/19 02:43:29;;;;;;;;;;;;;;;;;;;;;
2023/07/19 02:46:35;;;;;;;4.07;1.98;;;;;;;;;;4919798;28;100718;-85
2023/07/19 02:49:44;;;;;;;9.50;1.80;;;;;;;;;;4958639;28;99475;-85
2023/07/19 02:52:49;;;;;;;4.60;1.75;;;;;;;;;;4930977;28;98622;-85
2023/07/19 02:58:40;;;;;;;3.05;1.63;;;;;;;;;;4946652;28;99117;-85
2023/07/19 03:04:48;;;;;;;6.50;1.95;;;;;;;;;;4935865;28;100623;-83
2023/07/19 03:07:38;;;;;;;4.82;2.00;;;;;;;;;;4958242;28;98677;-84
2023/07/19 03:10:42;;;;;;;4.63;2.00;;;;;;;;;;4955084;28;98445;-85
2023/07/19 03:13:37;;;;;;;4.72;1.73;;;;;;;;;;4936468;28;102015;-83
2023/07/19 03:16:39;;;;;;;7.20;2.10;;;;;;;;;;4955074;28;98227;-83
2023/07/19 03:19:33;;;;;;;4.63;1.80;;;;;;;;;;4935303;28;100152;-84
2023/07/19 03:22:34;;;;;;;5.00;1.98;;;;;;;;;;4939285;28;99004;-84
2023/07/19 03:25:51;;;;;;;6.15;2.10;;;;;;;;;;4923779;28;98807;-84
2023/07/19 03:28:55;;;;;;;4.63;1.80;;;;;;;;;;4931526;28;100356;-83
2023/07/19 03:31:28;;;;;;;4.55;1.70;;;;;;;;;;4935659;28;98263;-84
2023/07/19 03:34:14;;;;;;;5.63;1.90;;;;;;;;;;4928692;28;99826;-83
2023/07/19 03:36:59;;;;;;;4.82;2.17;;;;;;;;;;4919186;28;101649;-84
2023/07/19 03:39:47;;;;;;;;;;;;;;;;;;;;;
2023/07/19 03:42:38;;;;;;;4.35;2.05;;;;;;;;;;4935680;28;99442;-84
2023/07/19 03:45:19;;;;;;;5.03;1.88;;;;;;;;;;4940748;28;101342;-84
2023/07/19 03:47:49;;;;;;;6.40;2.42;;;;;;;;;;4946474;28;98212;-84
2023/07/19 03:50:37;;;;;;;6.10;2.15;;;;;;;;;;4943235;28;101041;-83
2023/07/19 03:53:23;;;;;;;6.45;2.25;;;;;;;;;;4926689;28;98333;-84
2023/07/19 03:56:22;;;;;;;5.55;2.10;;;;;;;;;;4956212;28;98297;-83
2023/07/19 03:59:03;;;;;;;5.50;2.10;;;;;;;;;;4941887;28;101581;-83
2023/07/19 04:01:42;;;;;;;5.25;2.17;;;;;;;;;;4961359;28;97706;-83
2023/07/19 04:04:24;;;;;;;4.20;1.85;;;;;;;;;;4960879;28;98706;-83
2023/07/19 04:06:59;;;;;;;5.53;2.20;;;;;;;;;;4966403;28;98605;-83
2023/07/19 04:09:37;;;;;;;4.38;1.80;;;;;;;;;;4931417;28;99834;-85
2023/07/19 04:12:19;;;;;;;5.22;2.10;;;;;;;;;;4960089;28;99223;-86
2023/07/19 04:15:08;;;;;;;7.03;2.10;;;;;;;;;;4968926;28;98385;-85
2023/07/19 04:17:44;;;;;;;8.63;2.38;;;;;;;;;;4941835;28;101493;-84
2023/07/19 04:20:48;;;;;;;8.80;2.05;;;;;;;;;;4947085;28;99903;-83
2023/07/19 04:23:48;;;;;;;6.28;2.05;;;;;;;;;;4927805;28;98268;-82
2023/07/19 04:34:08;;;;;;;5.18;1.92;;;;;;;;;;4956601;28;115732;-83
2023/07/19 04:36:48;;;;;;;6.68;2.17;;;;;;;;;;4941865;28;101038;-84
2023/07/19 04:39:29;;;;;;;5.10;1.77;;;;;;;;;;4957807;28;98993;-83
2023/07/19 04:42:11;;;;;;;7.90;2.00;;;;;;;;;;4941981;28;101848;-83
2023/07/19 04:44:38;;;;;;;4.97;2.20;;;;;;;;;;4941806;28;101119;-83
2023/07/19 04:47:08;;;;;;;5.25;1.98;;;;;;;;;;4959386;28;98223;-84
2023/07/19 04:49:35;;;;;;;5.25;1.80;;;;;;;;;;4941701;28;100309;-84
2023/07/19 04:52:03;;;;;;;6.72;2.20;;;;;;;;;;4917880;28;99601;-84
2023/07/19 04:54:31;;;;;;;5.60;1.85;;;;;;;;;;4958287;28;98223;-84
2023/07/19 04:56:59;;;;;;;6.65;2.20;;;;;;;;;;4922235;28;100366;-85
2023/07/19 04:59:26;;;;;;;6.30;2.33;;;;;;;;;;4954068;28;101421;-85
2023/07/19 05:01:53;;;;;;;5.78;2.05;;;;;;;;;;4957673;28;100753;-83
2023/07/19 05:04:21;;;;;;;6.13;2.00;;;;;;;;;;4952736;28;101361;-84
2023/07/19 05:06:49;;;;;;;;;;;;;;;;;;4941962;28;98536;-84
2023/07/19 05:09:19;;;;;;;5.18;1.98;;;;;;;;;;4960927;28;99282;-84
2023/07/19 05:11:48;;;;;;;4.75;1.90;;;;;;;;;;4941244;28;101113;-85
2023/07/19 05:14:23;;;;;;;5.78;2.15;;;;;;;;;;4935029;28;98164;-85
2023/07/19 05:17:00;;;;;;;6.47;2.22;;;;;;;;;;4943061;28;98508;-86
2023/07/19 05:19:31;;;;;;;7.45;2.20;;;;;;;;;;4958610;28;98662;-84
2023/07/19 05:22:04;;;;;;;7.97;2.50;;;;;;;;;;4946310;28;97397;-84
2023/07/19 05:24:57;;;;;;;6.38;2.08;;;;;;;;;;4959077;28;99376;-84
2023/07/19 05:27:34;;;;;;;6.40;2.20;;;;;;;;;;4958619;28;98217;-84
2023/07/19 05:30:21;;;;;;;5.93;2.13;;;;;;;;;;4968515;28;99159;-84
2023/07/19 05:33:03;;;;;;;4.97;2.08;;;;;;;;;;4951128;28;98574;-84
2023/07/19 05:35:44;;;;;;;6.65;2.10;;;;;;;;;;4940409;28;98256;-84
2023/07/19 05:38:21;;;;;;;6.68;2.38;;;;;;;;;;4942023;28;99019;-83
2023/07/19 05:41:13;;;;;;;12.52;2.28;;;;;;;;;;4958335;28;98746;-84
2023/07/19 05:43:49;;;;;;;7.70;2.60;;;;;;;;;;4958564;28;98167;-84
2023/07/19 05:46:40;;;;;;;5.30;2.30;;;;;;;;;;4961920;28;98187;-84
2023/07/19 05:53:01;;;;;;;6.45;2.50;;;;;;;;;;4957833;28;98123;-84
2023/07/19 05:55:43;;;;;;;7.18;2.20;;;;;;;;;;4957915;28;99251;-84
2023/07/19 05:58:17;;;;;;;6.72;2.50;;;;;;;;;;4939980;28;99694;-84
2023/07/19 06:01:17;;;;;;;7.13;2.45;;;;;;;;;;4959618;28;99012;-84
2023/07/19 06:03:57;;;;;;;6.53;2.35;;;;;;;;;;4957490;28;99554;-85
2023/07/19 06:06:50;;;;;;;8.48;2.45;;;;;;;;;;4957777;28;116392;-84
2023/07/19 06:10:03;;;;;;;5.60;2.50;;;;;;;;;;4928074;28;98867;-85
2023/07/19 06:13:13;;;;;;;6.35;2.00;;;;;;;;;;4943820;28;100061;-84
2023/07/19 06:16:08;;;;;;;;;;;;;;;;;;;;;
2023/07/19 06:19:04;;;;;;;5.28;2.08;;;;;;;;;;4958302;28;98601;-85
2023/07/19 06:22:19;;;;;;;6.45;2.40;;;;;;;;;;4957554;28;115853;-84
2023/07/19 06:25:21;;;;;;;5.07;2.00;;;;;;;;;;4957640;28;99335;-84
2023/07/19 06:27:54;;;;;;;7.18;2.25;;;;;;;;;;4889220;28;101241;-85
2023/07/19 06:30:32;;;;;;;6.53;2.38;;;;;;;;;;4968493;28;98331;-85
2023/07/19 06:33:26;;;;;;;6.22;2.20;;;;;;;;;;4940101;28;98770;-86
2023/07/19 06:36:20;;;;;;;5.75;2.00;;;;;;;;;;4927258;28;99351;-86
2023/07/19 06:39:07;;;;;;;6.68;2.25;;;;;;;;;;4943129;28;99093;-85
2023/07/19 06:42:01;;;;;;;4.20;1.70;;;;;;;;;;4965318;28;98727;-85
2023/07/19 06:44:49;;;;;;;6.63;1.73;;;;;;;;;;4958219;28;98154;-85
2023/07/19 06:47:33;;;;;;;5.28;1.73;;;;;;;;;;4958604;28;98576;-85
2023/07/19 06:50:56;;;;;;;;;;;;;;;;;;;;;
2023/07/19 06:54:09;;;;;;;8.90;1.70;;;;;;;;;;4942034;28;98235;-87
2023/07/19 06:56:59;;;;;;;4.38;1.75;;;;;;;;;;4958715;28;98820;-87
2023/07/19 07:02:46;;;;;;;6.97;1.90;;;;;;;;;;4938908;28;98242;-88
2023/07/19 07:05:22;;;;;;;5.15;1.60;;;;;;;;;;4961541;28;98798;-88
2023/07/19 07:08:06;;;;;;;5.03;1.55;;;;;;;;;;4958982;28;98253;-87
2023/07/19 07:10:48;;;;;;;6.15;1.80;;;;;;;;;;4943560;28;101090;-85
2023/07/19 07:13:31;;;;;;;6.82;2.00;;;;;;;;;;4944308;28;100134;-88
2023/07/19 07:16:07;;;;;;;5.93;1.90;;;;;;;;;;4941955;28;97461;-87
2023/07/19 07:18:41;;;;;;;4.28;1.50;;;;;;;;;;4944999;28;98157;-85
2023/07/19 07:21:18;;;;;;;6.05;1.50;;;;;;;;;;4962524;28;98775;-87
2023/07/19 07:23:49;;;;;;;7.03;1.70;;;;;;;;;;4962180;28;98866;-85
2023/07/19 07:26:25;;;;;;;;;;;;;;;;;;4953269;28;99384;-84
2023/07/19 07:29:00;;;;;;;5.53;1.67;;;;;;;;;;4962892;28;98116;-84
2023/07/19 07:31:42;;;;;;;6.85;1.77;;;;;;;;;;4960670;28;98568;-84
2023/07/19 07:34:18;;;;;;;5.75;1.70;;;;;;;;;;4953240;28;99112;-85
2023/07/19 07:36:58;;;;;;;3.97;1.52;;;;;;;;;;4943629;28;98741;-85
2023/07/19 07:39:48;;;;;;;4.25;1.63;;;;;;;;;;4946674;28;98763;-86
2023/07/19 07:42:19;;;;;;;5.30;1.90;;;;;;;;;;4943854;28;100142;-85
2023/07/19 07:44:52;;;;;;;7.75;2.05;;;;;;;;;;4949594;28;98724;-87
2023/07/19 07:47:23;;;;;;;7.50;2.30;;;;;;;;;;4960594;28;98401;-87
2023/07/19 07:49:51;;;;;;;4.70;1.70;;;;;;;;;;4949557;28;99437;-87
2023/07/19 07:52:18;;;;;;;4.32;1.50;;;;;;;;;;4935296;28;99178;-88
2023/07/19 07:54:48;;;;;;;5.68;1.60;;;;;;;;;;4940891;28;98827;-86
2023/07/19 07:57:16;;;;;;;5.28;1.85;;;;;;;;;;4943004;28;98243;-87
2023/07/19 07:59:45;;;;;;;7.28;2.20;;;;;;;;;;4965418;28;98507;-88
2023/07/19 08:02:13;;;;;;;7.03;2.50;;;;;;;;;;4960229;28;98789;-87
2023/07/19 08:04:39;;;;;;;;;;;;;;;;;;4961185;28;98158;-86
2023/07/19 08:07:10;;;;;;;8.38;2.78;;;;;;;;;;4972044;28;98423;-86
2023/07/19 08:09:41;;;;;;;6.25;2.10;;;;;;;;;;4960572;28;98800;-85
2023/07/19 08:12:13;;;;;;;9.35;2.80;;;;;;;;;;4934616;28;98307;-87
2023/07/19 08:14:41;;;;;;;7.25;2.30;;;;;;;;;;4962618;28;100299;-87
2023/07/19 08:17:11;;;;;;;4.70;1.63;;;;;;;;;;4938528;28;98491;-87
2023/07/19 08:19:41;;;;;;;9.15;2.00;;;;;;;;;;4939299;28;98379;-86
2023/07/19 08:22:08;;;;;;;;;;;;;;;;;;4943860;28;99573;-87
2023/07/19 08:24:36;;;;;;;5.28;1.67;;;;;;;;;;4925183;28;98183;-87
2023/07/19 08:27:08;;;;;;;5.13;1.70;;;;;;;;;;4942170;28;99649;-86
2023/07/19 08:29:35;;;;;;;7.18;1.98;;;;;;;;;;4953208;28;98843;-86
2023/07/19 08:32:03;;;;;;;7.95;2.58;;;;;;;;;;4943085;28;97674;-86
2023/07/19 08:34:30;;;;;;;7.53;2.63;;;;;;;;;;4947591;28;98191;-86
2023/07/19 08:36:57;;;;;;;6.55;2.30;;;;;;;;;;4944795;28;100101;-86
2023/07/19 08:39:24;;;;;;;6.93;2.03;;;;;;;;;;4960119;28;98983;-86
2023/07/19 08:41:51;;;;;;;;;;;;;;;;;;4960035;28;99109;-86
2023/07/19 08:44:19;;;;;;;6.72;1.77;;;;;;;;;;4950236;28;98203;-86
2023/07/19 08:46:46;;;;;;;7.82;2.42;;;;;;;;;;4945576;28;98287;-86
2023/07/19 08:49:17;;;;;;;6.18;2.17;;;;;;;;;;4948800;28;98766;-88
2023/07/19 08:51:46;;;;;;;6.80;2.20;;;;;;;;;;4949301;28;98316;-87
2023/07/19 08:54:14;;;;;;;7.07;2.65;;;;;;;;;;4927014;28;100296;-88
2023/07/19 08:56:41;;;;;;;7.95;3.25;;;;;;;;;;4951818;28;97660;-87
2023/07/19 08:59:08;;;;;;;8.38;3.00;;;;;;;;;;4943000;28;100130;-88
2023/07/19 09:01:35;;;;;;;5.32;2.00;;;;;;;;;;4943504;28;99746;-88
2023/07/19 09:04:11;;;;;;;5.35;2.10;;;;;;;;;;4961400;28;98850;-89
2023/07/19 09:06:39;;;;;;;8.25;2.60;;;;;;;;;;4961323;28;99664;-92
2023/07/19 09:09:14;;;;;;;9.20;2.22;;;;;;;;;;4959274;28;98866;-88
2023/07/19 09:11:49;;;;;;;9.23;2.72;;;;;;;;;;4960535;28;99000;-88
2023/07/19 09:14:33;;;;;;;8.02;2.65;;;;;;;;;;4960545;28;98557;-91
2023/07/19 09:17:07;;;;;;;6.22;2.15;;;;;;;;;;4972623;28;98621;-89
2023/07/19 09:19:41;;;;;;;4.38;1.75;;;;;;;;;;4946222;28;98964;-89
2023/07/19 09:22:14;;;;;;;5.82;1.90;;;;;;;;;;4942824;28;99853;-89
2023/07/19 09:25:01;;;;;;;4.80;2.00;;;;;;;;;;4958419;28;98178;-89
2023/07/19 09:27:29;;;;;;;5.70;2.05;;;;;;;;;;4961658;28;98222;-88
2023/07/19 09:29:56;;;;;;;6.07;2.00;;;;;;;;;;4952828;28;99360;-87
2023/07/19 09:32:24;;;;;;;5.22;2.00;;;;;;;;;;4943616;28;98654;-87
2023/07/19 09:34:55;;;;;;;7.32;2.22;;;;;;;;;;4958674;28;98437;-86
2023/07/19 09:37:23;;;;;;;6.60;1.98;;;;;;;;;;4954657;28;98438;-87
2023/07/19 09:39:50;;;;;;;4.55;1.90;;;;;;;;;;4935216;28;98685;-88
2023/07/19 09:42:18;;;;;;;5.13;1.65;;;;;;;;;;4936298;28;101237;-87
2023/07/19 09:44:46;;;;;;;7.07;2.30;;;;;;;;;;4955196;28;98176;-89
2023/07/19 09:47:14;;;;;;;5.30;2.00;;;;;;;;;;4938464;28;98297;-86
2023/07/19 09:49:55;;;;;;;4.97;1.73;;;;;;;;;;4919435;28;100605;-87
2023/07/19 09:52:24;;;;;;;8.02;2.85;;;;;;;;;;4950735;28;99125;-87
2023/07/19 09:54:53;;;;;;;7.63;2.80;;;;;;;;;;4951549;28;99471;-84
2023/07/19 09:57:20;;;;;;;;;;;;;;;;;;4923377;28;101285;-84
2023/07/19 09:59:49;;;;;;;6.25;2.60;;;;;;;;;;4932516;28;108304;-81
2023/07/19 10:02:16;;;;;;;11.27;3.05;;;;;;;;;;4951196;28;99256;-87
2023/07/19 10:04:43;;;;;;;10.95;2.47;;;;;;;;;;4952063;28;99327;-86
2023/07/19 10:07:11;;;;;;;5.80;1.85;;;;;;;;;;4955632;28;98846;-84
2023/07/19 10:09:43;;;;;;;6.47;2.22;;;;;;;;;;4939478;28;101782;-86
2023/07/19 10:12:16;;;;;;;7.28;2.60;;;;;;;;;;4937953;28;97475;-86
2023/07/19 10:14:56;;;;;;;6.53;2.10;;;;;;;;;;4923024;28;100407;-87
2023/07/19 10:17:24;;;;;;;7.32;2.60;;;;;;;;;;4956259;28;98586;-87
2023/07/19 10:20:04;;;;;;;6.90;1.92;;;;;;;;;;4957076;28;98998;-86
2023/07/19 10:22:48;;;;;;;6.68;1.92;;;;;;;;;;4933946;28;98915;-86
2023/07/19 10:25:17;;;;;;;6.10;2.08;;;;;;;;;;4968963;28;99113;-85
2023/07/19 10:27:54;;;;;;;8.32;2.13;;;;;;;;;;4953309;28;98391;-85
2023/07/19 10:30:21;;;;;;;6.32;1.98;;;;;;;;;;4940141;28;101255;-84
2023/07/19 10:32:50;;;;;;;4.75;2.08;;;;;;;;;;4940524;28;98448;-86
2023/07/19 10:35:30;;;;;;;7.47;2.20;;;;;;;;;;4944676;28;99767;-85
2023/07/19 10:37:57;;;;;;;9.82;2.90;;;;;;;;;;4958549;28;98741;-85
2023/07/19 10:40:27;;;;;;;6.78;2.20;;;;;;;;;;4947123;28;98330;-87
2023/07/19 10:42:53;;;;;;;9.50;2.70;;;;;;;;;;4943454;28;98557;-86
2023/07/19 10:45:25;;;;;;;7.28;2.10;;;;;;;;;;4955671;28;99651;-85
2023/07/19 10:47:52;;;;;;;5.35;2.10;;;;;;;;;;4926903;28;98378;-85
2023/07/19 10:50:23;;;;;;;7.00;2.20;;;;;;;;;;4957323;28;98635;-85
2023/07/19 10:52:50;;;;;;;6.07;1.92;;;;;;;;;;4939844;28;98147;-87
2023/07/19 10:55:17;;;;;;;6.85;2.00;;;;;;;;;;4945598;28;98535;-85
2023/07/19 10:58:05;;;;;;;6.07;1.92;;;;;;;;;;4950213;28;99324;-86
2023/07/19 11:00:34;;;;;;;5.82;2.00;;;;;;;;;;4953030;28;98619;-85
2023/07/19 11:03:01;;;;;;;6.50;2.13;;;;;;;;;;4953062;28;98211;-85
2023/07/19 11:05:28;;;;;;;5.93;2.10;;;;;;;;;;4951632;28;98767;-84
2023/07/19 11:07:55;;;;;;;6.93;2.22;;;;;;;;;;4955904;28;98254;-86
2023/07/19 11:10:22;;;;;;;7.57;2.10;;;;;;;;;;4934065;28;99375;-86
2023/07/19 11:12:48;;;;;;;9.10;2.40;;;;;;;;;;4952342;28;98781;-85
2023/07/19 11:15:19;;;;;;;14.23;2.40;;;;;;;;;;4937001;28;98552;-87
2023/07/19 11:17:48;;;;;;;8.05;1.88;;;;;;;;;;4933688;28;98977;-85
2023/07/19 11:20:26;;;;;;;26.80;2.58;;;;;;;;;;4954300;28;99692;-84
2023/07/19 11:23:02;;;;;;;7.55;2.58;;;;;;;;;;4938380;28;98571;-84
2023/07/19 11:25:29;;;;;;;7.57;2.03;;;;;;;;;;4955140;28;101017;-83
2023/07/19 11:27:56;;;;;;;11.65;2.60;;;;;;;;;;4938197;28;98136;-84
2023/07/19 11:30:37;;;;;;;6.90;2.13;;;;;;;;;;4957417;28;98299;-84
2023/07/19 11:33:07;;;;;;;6.43;1.65;;;;;;;;;;4957391;28;98813;-83
2023/07/19 11:35:37;;;;;;;6.22;2.00;;;;;;;;;;4955200;28;100112;-83
2023/07/19 11:38:08;;;;;;;7.65;2.05;;;;;;;;;;4951831;28;99644;-85
2023/07/19 11:40:39;;;;;;;6.70;2.00;;;;;;;;;;4952175;28;98541;-83
2023/07/19 11:43:09;;;;;;;7.82;2.10;;;;;;;;;;4953138;28;99120;-81
2023/07/19 11:45:36;;;;;;;8.50;2.30;;;;;;;;;;4953397;28;98791;-83
2023/07/19 11:48:15;;;;;;;10.75;2.10;;;;;;;;;;4953663;28;98983;-85
2023/07/19 11:50:43;;;;;;;8.93;2.38;;;;;;;;;;4953138;28;99308;-86
2023/07/19 11:53:13;;;;;;;9.07;2.20;;;;;;;;;;4956594;28;99250;-86
2023/07/19 11:55:44;;;;;;;7.10;2.05;;;;;;;;;;4947505;28;98556;-86
2023/07/19 11:58:12;;;;;;;6.28;1.98;;;;;;;;;;4946445;28;101019;-83
2023/07/19 12:00:45;;;;;;;;;;;;;;;;;;4957801;28;99337;-84
2023/07/19 12:03:43;;;;;;;6.57;2.25;;;;;;;;;;4958937;28;98817;-86
2023/07/19 12:06:18;;;;;;;7.10;1.98;;;;;;;;;;4961201;28;98587;-86
2023/07/19 12:09:02;;;;;;;6.15;2.10;;;;;;;;;;4970006;28;98459;-86
2023/07/19 12:11:47;;;;;;;6.20;2.00;;;;;;;;;;4960751;28;99172;-87
2023/07/19 12:14:25;;;;;;;5.05;1.77;;;;;;;;;;4958389;28;99295;-85
2023/07/19 12:17:07;;;;;;;7.03;1.85;;;;;;;;;;4941023;28;98230;-84
2023/07/19 12:19:34;;;;;;;11.60;1.90;;;;;;;;;;4960143;28;98344;-83
2023/07/19 12:22:04;;;;;;;3.05;1.35;;;;;;;;;;4958772;28;98870;-82
2023/07/19 12:24:34;;;;;;;4.70;1.80;;;;;;;;;;4960719;28;98397;-84
2023/07/19 12:27:01;;;;;;;5.90;1.60;;;;;;;;;;4959390;28;99909;-83
2023/07/19 12:29:30;;;;;;;5.40;1.88;;;;;;;;;;4959820;28;98210;-82
2023/07/19 12:32:14;;;;;;;5.82;1.77;;;;;;;;;;4946266;28;99873;-82
2023/07/19 12:34:42;;;;;;;4.68;1.70;;;;;;;;;;4923067;28;99813;-83
2023/07/19 12:37:09;;;;;;;4.75;1.67;;;;;;;;;;4938562;28;99161;-82
2023/07/19 12:39:36;;;;;;;7.85;2.10;;;;;;;;;;4960474;28;99098;-83
2023/07/19 12:42:03;;;;;;;6.88;1.85;;;;;;;;;;4957993;28;98120;-82
2023/07/19 12:44:30;;;;;;;8.30;1.90;;;;;;;;;;4958781;28;98467;-81
2023/07/19 12:46:56;;;;;;;4.70;1.65;;;;;;;;;;4941299;28;100974;-81
2023/07/19 12:49:23;;;;;;;4.75;1.95;;;;;;;;;;4949853;28;98660;-81
2023/07/19 12:51:50;;;;;;;5.80;1.77;;;;;;;;;;4921812;28;99088;-81
2023/07/19 12:54:17;;;;;;;4.95;1.75;;;;;;;;;;4942699;28;98589;-81
2023/07/19 12:56:44;;;;;;;4.45;1.73;;;;;;;;;;4942077;28;98269;-82
2023/07/19 12:59:10;;;;;;;4.45;1.70;;;;;;;;;;4961531;28;98694;-81
2023/07/19 13:01:37;;;;;;;6.57;1.90;;;;;;;;;;4941504;28;98326;-80
2023/07/19 13:04:05;;;;;;;4.38;1.80;;;;;;;;;;4958863;28;98471;-80
2023/07/19 13:06:33;;;;;;;6.50;1.85;;;;;;;;;;4958789;28;99024;-82
2023/07/19 13:09:03;;;;;;;4.97;1.73;;;;;;;;;;4957598;28;97648;-80
2023/07/19 13:11:30;;;;;;;6.45;1.75;;;;;;;;;;4929330;28;100620;-80
2023/07/19 13:13:58;;;;;;;4.63;1.70;;;;;;;;;;4943075;28;98732;-81
2023/07/19 13:16:25;;;;;;;6.38;1.60;;;;;;;;;;4949949;28;99117;-81
2023/07/19 13:18:52;;;;;;;;;;;;;;;;;;4959368;28;99415;-82
2023/07/19 13:21:18;;;;;;;6.88;1.88;;;;;;;;;;4958452;28;99578;-82
2023/07/19 13:23:45;;;;;;;7.95;1.88;;;;;;;;;;4959088;28;99293;-81
2023/07/19 13:26:12;;;;;;;4.13;1.70;;;;;;;;;;4941746;28;98820;-81
2023/07/19 13:28:40;;;;;;;4.72;1.65;;;;;;;;;;4959095;28;98203;-81
2023/07/19 13:31:07;;;;;;;3.85;1.60;;;;;;;;;;4946371;28;98296;-81
2023/07/19 13:33:34;;;;;;;5.68;1.70;;;;;;;;;;4934425;28;98702;-82
2023/07/19 13:36:01;;;;;;;3.85;1.48;;;;;;;;;;4934869;28;98457;-82
2023/07/19 13:38:27;;;;;;;6.85;1.70;;;;;;;;;;4954383;28;98844;-81
2023/07/19 13:40:54;;;;;;;5.07;1.60;;;;;;;;;;4948421;28;99537;-81
2023/07/19 13:43:21;;;;;;;4.88;1.45;;;;;;;;;;4950225;28;98202;-80
2023/07/19 13:45:49;;;;;;;4.80;1.58;;;;;;;;;;4905677;28;101383;-81
2023/07/19 13:48:16;;;;;;;3.83;1.40;;;;;;;;;;4950974;28;98616;-82
2023/07/19 13:50:43;;;;;;;5.97;1.60;;;;;;;;;;4944493;28;98255;-81
2023/07/19 13:53:10;;;;;;;;;;;;;;;;;;4941286;28;98870;-81
2023/07/19 13:55:39;;;;;;;5.35;1.40;;;;;;;;;;4960566;28;98607;-81
2023/07/19 13:58:07;;;;;;;3.47;1.25;;;;;;;;;;4958224;28;98355;-82
2023/07/19 14:00:37;;;;;;;5.15;1.60;;;;;;;;;;4946290;28;100522;-81
2023/07/19 14:03:04;;;;;;;4.57;1.77;;;;;;;;;;4945509;28;100179;-81
2023/07/19 14:05:31;;;;;;;;;;;;;;;;;;4955968;28;99190;-81
2023/07/19 14:07:58;;;;;;;3.30;1.10;;;;;;;;;;4959964;28;99130;-81
2023/07/19 14:10:25;;;;;;;4.43;1.50;;;;;;;;;;4958410;28;98484;-81
2023/07/19 14:12:54;;;;;;;4.88;1.40;;;;;;;;;;4957582;28;99245;-80
2023/07/19 14:15:25;;;;;;;5.45;1.40;;;;;;;;;;4941927;28;98179;-81
2023/07/19 14:17:52;;;;;;;6.40;1.60;;;;;;;;;;4940477;28;100536;-81
2023/07/19 14:20:19;;;;;;;;;;;;;;;;;;4948615;28;100639;-81
2023/07/19 14:22:46;;;;;;;4.47;1.60;;;;;;;;;;4956146;28;97438;-81
2023/07/19 14:25:16;;;;;;;4.07;1.40;;;;;;;;;;4939958;28;98795;-82
2023/07/19 14:27:43;;;;;;;4.82;1.40;;;;;;;;;;4940660;28;101843;-81
2023/07/19 14:30:09;;;;;;;4.75;1.60;;;;;;;;;;4956935;28;98970;-81
2023/07/19 14:32:37;;;;;;;6.55;1.77;;;;;;;;;;4954151;28;98642;-82
2023/07/19 14:35:03;;;;;;;;;;;;;;;;;;4950802;28;98832;-81
2023/07/19 14:37:38;;;;;;;3.00;1.30;;;;;;;;;;4959804;28;98086;-81
2023/07/19 14:40:05;;;;;;;5.93;1.50;;;;;;;;;;4953553;28;98742;-82
2023/07/19 14:42:32;;;;;;;4.95;1.75;;;;;;;;;;4920940;28;98745;-82
2023/07/19 14:44:59;;;;;;;4.43;1.60;;;;;;;;;;4920954;28;101450;-82
2023/07/19 14:47:25;;;;;;;5.18;1.73;;;;;;;;;;4949617;28;98394;-82
2023/07/19 14:49:52;;;;;;;4.28;1.60;;;;;;;;;;4954300;28;98209;-82
2023/07/19 14:52:19;;;;;;;4.90;1.73;;;;;;;;;;4938176;28;98623;-81
2023/07/19 14:54:46;;;;;;;;;;;;;;;;;;4934732;28;99526;-81
2023/07/19 14:57:13;;;;;;;3.42;1.35;;;;;;;;;;4959355;28;98620;-80
2023/07/19 14:59:40;;;;;;;4.88;1.60;;;;;;;;;;4909627;28;100788;-80
2023/07/19 15:02:13;;;;;;;5.70;1.40;;;;;;;;;;4929026;28;98491;-79
2023/07/19 15:04:43;;;;;;;4.10;1.20;;;;;;;;;;4933592;28;98524;-80
2023/07/19 15:07:09;;;;;;;3.53;1.25;;;;;;;;;;4909559;28;99500;-81
2023/07/19 15:09:36;;;;;;;4.57;1.60;;;;;;;;;;4922139;28;98322;-80
2023/07/19 15:12:03;;;;;;;4.72;1.63;;;;;;;;;;4935252;28;98750;-80
2023/07/19 15:14:30;;;;;;;6.55;1.60;;;;;;;;;;4930708;28;98268;-81
2023/07/19 15:16:59;;;;;;;2.83;1.40;;;;;;;;;;4911770;28;98506;-82
2023/07/19 15:19:26;;;;;;;5.72;1.73;;;;;;;;;;4933492;28;100420;-83
2023/07/19 15:21:53;;;;;;;4.70;1.67;;;;;;;;;;4935882;28;99661;-83
2023/07/19 15:24:20;;;;;;;;;;;;;;;;;;4920102;28;100915;-81
2023/07/19 15:26:47;;;;;;;3.65;1.58;;;;;;;;;;4938261;28;118894;-81
2023/07/19 15:29:14;;;;;;;5.63;1.50;;;;;;;;;;4917321;28;99105;-81
2023/07/19 15:31:40;;;;;;;5.47;1.60;;;;;;;;;;4937902;28;99249;-81
2023/07/19 15:34:10;;;;;;;4.57;1.55;;;;;;;;;;4925708;28;98137;-81
2023/07/19 15:36:38;;;;;;;3.85;1.70;;;;;;;;;;4913258;28;98977;-81
2023/07/19 15:39:06;;;;;;;4.85;1.60;;;;;;;;;;4937993;28;99258;-82
2023/07/19 15:41:33;;;;;;;4.35;1.50;;;;;;;;;;4938682;28;98541;-80
2023/07/19 15:44:00;;;;;;;4.10;1.50;;;;;;;;;;4940790;28;99018;-80
2023/07/19 15:46:26;;;;;;;6.03;2.00;;;;;;;;;;4939837;28;98395;-82
2023/07/19 15:48:53;;;;;;;3.80;1.70;;;;;;;;;;4923007;28;98643;-82
2023/07/19 15:51:20;;;;;;;3.88;1.50;;;;;;;;;;4931297;28;98666;-82
2023/07/19 15:53:47;;;;;;;4.32;1.50;;;;;;;;;;4925947;28;98837;-82
2023/07/19 15:56:14;;;;;;;6.22;1.70;;;;;;;;;;4940580;28;98417;-82
2023/07/19 15:58:40;;;;;;;5.85;1.77;;;;;;;;;;4938732;28;100302;-83
2023/07/19 16:01:07;;;;;;;4.10;1.70;;;;;;;;;;4943283;28;97698;-82
2023/07/19 16:03:35;;;;;;;5.30;1.63;;;;;;;;;;4950874;28;98344;-81
2023/07/19 16:06:02;;;;;;;6.10;2.03;;;;;;;;;;4925060;28;101533;-81
2023/07/19 16:08:30;;;;;;;6.00;2.10;;;;;;;;;;4923428;28;98905;-81
2023/07/19 16:10:57;;;;;;;3.33;1.50;;;;;;;;;;4915575;28;99462;-81
2023/07/19 16:13:24;;;;;;;4.38;1.67;;;;;;;;;;4940627;28;99888;-82
2023/07/19 16:15:50;;;;;;;4.75;1.60;;;;;;;;;;4944175;28;98612;-81
2023/07/19 16:18:17;;;;;;;4.60;1.52;;;;;;;;;;4940374;28;99407;-81
2023/07/19 16:20:44;;;;;;;3.17;1.50;;;;;;;;;;4940660;28;98222;-81
2023/07/19 16:23:11;;;;;;;4.00;1.33;;;;;;;;;;4941287;28;99303;-82
2023/07/19 16:25:37;;;;;;;4.07;1.55;;;;;;;;;;4941042;28;98093;-81
2023/07/19 16:28:04;;;;;;;4.00;1.50;;;;;;;;;;4923228;28;98538;-81
2023/07/19 16:30:31;;;;;;;5.70;1.90;;;;;;;;;;4940778;28;98828;-82